createdAt,value
2018-09-18T00:01:36.531Z,7.45
2018-09-18T00:03:40.393Z,5.30
2018-09-18T00:05:44.268Z,6.95
2018-09-18T00:07:48.072Z,5.22
2018-09-18T00:09:52.519Z,6.58
2018-09-18T00:11:56.547Z,6.80
2018-09-18T00:14:00.450Z,5.17
2018-09-18T00:16:04.339Z,4.60
2018-09-18T00:18:08.356Z,7.00
2018-09-18T00:20:12.133Z,10.40
2018-09-18T00:22:16.030Z,5.58
2018-09-18T00:24:19.844Z,9.28
2018-09-18T00:26:24.485Z,6.25
2018-09-18T00:28:28.484Z,6.17
2018-09-18T00:30:32.294Z,7.80
2018-09-18T00:32:36.275Z,5.22
2018-09-18T00:34:40.285Z,6.67
2018-09-18T00:36:44.244Z,9.35
2018-09-18T00:38:48.045Z,7.55
2018-09-18T00:40:53.068Z,6.17
2018-09-18T00:42:57.123Z,8.20
2018-09-18T00:45:00.916Z,7.15
2018-09-18T00:47:04.728Z,8.15
2018-09-18T00:49:08.640Z,7.72
2018-09-18T00:51:12.435Z,8.13
2018-09-18T00:53:16.237Z,5.50
2018-09-18T00:55:20.057Z,8.33
2018-09-18T00:57:25.368Z,9.25
2018-09-18T00:59:29.284Z,8.33
2018-09-18T01:01:33.097Z,6.92
2018-09-18T01:03:36.906Z,6.75
2018-09-18T01:05:41.016Z,8.48
2018-09-18T01:07:44.835Z,8.15
2018-09-18T01:09:48.945Z,7.17
2018-09-18T01:11:53.903Z,7.75
2018-09-18T01:13:58.091Z,8.63
2018-09-18T01:16:01.959Z,6.62
2018-09-18T01:18:05.829Z,9.80
2018-09-18T01:20:09.618Z,5.30
2018-09-18T01:22:13.543Z,7.08
2018-09-18T01:24:17.336Z,7.78
2018-09-18T01:26:21.931Z,5.65
2018-09-18T01:28:25.792Z,7.65
2018-09-18T01:30:29.664Z,6.47
2018-09-18T01:32:33.531Z,6.40
2018-09-18T01:34:37.449Z,6.10
2018-09-18T01:36:41.384Z,7.00
2018-09-18T01:38:45.259Z,6.72
2018-09-18T01:40:49.167Z,7.92
2018-09-18T01:42:54.059Z,6.55
2018-09-18T01:44:58.052Z,6.72
2018-09-18T01:47:01.898Z,8.78
2018-09-18T01:49:05.868Z,6.50
2018-09-18T01:51:09.761Z,7.70
2018-09-18T01:53:13.571Z,5.65
2018-09-18T01:55:17.557Z,10.45
2018-09-18T01:57:21.785Z,6.15
2018-09-18T01:59:25.835Z,9.20
2018-09-18T02:01:30.143Z,9.38
2018-09-18T02:03:33.985Z,10.58
2018-09-18T02:05:37.983Z,8.55
2018-09-18T02:07:41.864Z,7.08
2018-09-18T02:09:45.759Z,5.87
2018-09-18T02:11:49.592Z,6.37
2018-09-18T02:13:54.991Z,5.85
2018-09-18T02:15:58.986Z,6.12
2018-09-18T02:18:02.831Z,5.92
2018-09-18T02:20:07.335Z,6.70
2018-09-18T02:22:11.160Z,7.33
2018-09-18T02:24:14.978Z,6.83
2018-09-18T02:26:19.104Z,8.78
2018-09-18T02:28:24.311Z,5.60
2018-09-18T02:30:28.232Z,7.33
2018-09-18T02:32:32.073Z,7.50
2018-09-18T02:34:35.931Z,6.10
2018-09-18T02:36:39.810Z,6.72
2018-09-18T02:38:43.621Z,6.80
2018-09-18T02:40:47.508Z,7.28
2018-09-18T02:42:51.739Z,7.83
2018-09-18T02:44:55.891Z,10.93
2018-09-18T02:46:59.741Z,6.20
2018-09-18T02:49:03.639Z,10.70
2018-09-18T02:51:07.476Z,5.47
2018-09-18T02:53:11.403Z,8.45
2018-09-18T02:55:15.243Z,7.87
2018-09-18T02:57:19.208Z,10.45
2018-09-18T02:59:24.096Z,9.08
2018-09-18T03:01:28.141Z,6.37
2018-09-18T03:03:31.958Z,6.35
2018-09-18T03:05:35.816Z,7.72
2018-09-18T03:07:39.702Z,7.83
2018-09-18T03:09:43.646Z,7.50
2018-09-18T03:11:47.468Z,6.58
2018-09-18T03:13:51.712Z,7.62
2018-09-18T03:15:56.088Z,5.12
2018-09-18T03:18:00.017Z,7.45
2018-09-18T03:20:03.940Z,5.90
2018-09-18T03:22:07.787Z,6.08
2018-09-18T03:24:11.763Z,8.53
2018-09-18T03:26:15.816Z,9.70
2018-09-18T03:28:19.649Z,9.83
2018-09-18T03:30:24.519Z,5.70
2018-09-18T03:32:28.471Z,8.08
2018-09-18T03:34:32.591Z,7.03
2018-09-18T03:36:36.434Z,6.75
2018-09-18T03:38:40.403Z,5.53
2018-09-18T03:40:44.256Z,5.40
2018-09-18T03:42:48.050Z,8.05
2018-09-18T03:44:52.794Z,6.92
2018-09-18T03:46:57.158Z,8.65
2018-09-18T03:49:01.155Z,8.55
2018-09-18T03:51:05.060Z,8.18
2018-09-18T03:53:08.930Z,5.87
2018-09-18T03:55:12.851Z,7.45
2018-09-18T03:57:16.845Z,7.15
2018-09-18T03:59:20.644Z,6.28
2018-09-18T04:01:24.953Z,6.83
2018-09-18T04:03:28.837Z,7.70
2018-09-18T04:05:33.039Z,6.90
2018-09-18T04:07:36.900Z,5.28
2018-09-18T04:09:40.841Z,7.10
2018-09-18T04:11:44.656Z,7.12
2018-09-18T04:13:48.577Z,5.12
2018-09-18T04:15:53.437Z,5.85
2018-09-18T04:17:57.899Z,5.95
2018-09-18T04:20:01.705Z,9.63
2018-09-18T04:22:05.542Z,5.15
2018-09-18T04:24:10.208Z,6.00
2018-09-18T04:26:14.108Z,4.62
2018-09-18T04:28:18.039Z,5.47
2018-09-18T04:30:22.822Z,6.47
2018-09-18T04:32:26.802Z,5.25
2018-09-18T04:34:30.694Z,9.20
2018-09-18T04:36:35.692Z,9.60
2018-09-18T04:38:39.715Z,7.90
2018-09-18T04:40:43.540Z,7.30
2018-09-18T04:42:47.384Z,5.35
2018-09-18T04:44:51.788Z,6.67
2018-09-18T04:46:55.736Z,6.45
2018-09-18T04:48:59.724Z,10.05
2018-09-18T04:51:03.623Z,7.15
2018-09-18T04:53:07.440Z,7.20
2018-09-18T04:55:11.299Z,6.17
2018-09-18T04:57:15.138Z,6.53
2018-09-18T04:59:19.055Z,7.37
2018-09-18T05:01:24.468Z,7.67
2018-09-18T05:03:28.385Z,7.05
2018-09-18T05:05:32.260Z,7.30
2018-09-18T05:07:36.262Z,6.12
2018-09-18T05:09:40.160Z,8.20
2018-09-18T05:11:44.074Z,5.78
2018-09-18T05:13:48.551Z,6.90
2018-09-18T05:15:53.522Z,8.73
2018-09-18T05:17:57.734Z,5.62
2018-09-18T05:20:01.687Z,8.00
2018-09-18T05:22:05.547Z,6.62
2018-09-18T05:24:09.573Z,5.75
2018-09-18T05:26:13.359Z,7.85
2018-09-18T05:28:17.232Z,7.17
2018-09-18T05:30:22.251Z,4.12
2018-09-18T05:32:27.199Z,6.35
2018-09-18T05:34:31.037Z,5.53
2018-09-18T05:36:34.916Z,5.60
2018-09-18T05:38:42.457Z,5.83
2018-09-18T05:40:46.270Z,7.70
2018-09-18T05:42:50.433Z,5.85
2018-09-18T05:44:54.604Z,16.82
2018-09-18T05:46:58.908Z,24.98
2018-09-18T05:49:02.914Z,17.65
2018-09-18T05:51:06.901Z,17.27
2018-09-18T05:53:11.332Z,15.00
2018-09-18T05:55:15.457Z,11.80
2018-09-18T05:57:19.316Z,13.22
2018-09-18T05:59:23.985Z,12.93
2018-09-18T06:01:27.868Z,18.35
2018-09-18T06:03:31.708Z,11.60
2018-09-18T06:05:35.586Z,7.53
2018-09-18T06:07:40.098Z,6.58
2018-09-18T06:10:15.165Z,7.78
2018-09-18T06:12:19.442Z,7.10
2018-09-18T06:14:23.512Z,5.55
2018-09-18T06:16:27.682Z,8.65
2018-09-18T06:19:56.146Z,7.92
2018-09-18T06:22:00.151Z,6.92
2018-09-18T06:24:04.186Z,6.03
2018-09-18T06:26:08.326Z,7.80
2018-09-18T06:28:12.780Z,8.18
2018-09-18T06:30:17.309Z,7.03
2018-09-18T06:32:23.059Z,6.90
2018-09-18T06:34:27.242Z,7.97
2018-09-18T06:36:31.352Z,7.58
2018-09-18T06:38:37.221Z,7.87
2018-09-18T06:40:41.531Z,9.58
2018-09-18T06:42:45.668Z,7.50
2018-09-18T06:44:49.878Z,8.93
2018-09-18T06:46:54.276Z,7.12
2018-09-18T06:48:58.426Z,8.60
2018-09-18T06:51:02.527Z,10.30
2018-09-18T06:53:07.053Z,5.42
2018-09-18T06:55:11.598Z,5.97
2018-09-18T06:57:15.777Z,4.58
2018-09-18T06:59:20.078Z,6.15
2018-09-18T07:01:24.106Z,7.17
2018-09-18T07:03:28.163Z,4.20
2018-09-18T07:05:32.274Z,5.95
2018-09-18T07:07:36.328Z,7.50
2018-09-18T07:09:40.523Z,5.00
2018-09-18T07:11:44.639Z,6.37
2018-09-18T07:13:48.742Z,5.90
2018-09-18T07:15:52.754Z,7.12
2018-09-18T07:17:56.833Z,6.30
2018-09-18T07:20:00.915Z,6.40
2018-09-18T07:22:04.938Z,6.47
2018-09-18T07:24:09.008Z,9.58
2018-09-18T07:26:13.193Z,9.28
2018-09-18T07:28:17.325Z,8.20
2018-09-18T07:30:21.399Z,6.78
2018-09-18T07:32:25.730Z,9.78
2018-09-18T07:34:29.775Z,7.95
2018-09-18T07:36:33.796Z,6.70
2018-09-18T07:38:38.114Z,9.55
2018-09-18T07:40:42.458Z,5.45
2018-09-18T07:42:46.583Z,8.68
2018-09-18T07:44:50.619Z,12.03
2018-09-18T07:46:54.610Z,7.10
2018-09-18T07:49:03.730Z,6.75
2018-09-18T07:51:10.605Z,6.50
2018-09-18T07:53:14.879Z,7.42
2018-09-18T07:55:19.034Z,7.17
2018-09-18T07:57:23.260Z,7.37
2018-09-18T07:59:27.444Z,5.55
2018-09-18T08:01:32.421Z,6.90
2018-09-18T08:03:36.506Z,8.15
2018-09-18T08:05:41.259Z,11.55
2018-09-18T08:07:45.619Z,11.30
2018-09-18T08:09:50.154Z,10.65
2018-09-18T08:11:55.008Z,9.15
2018-09-18T08:13:59.357Z,8.58
2018-09-18T08:16:03.601Z,9.25
2018-09-18T08:18:07.844Z,8.90
2018-09-18T08:20:12.018Z,7.10
2018-09-18T08:22:16.352Z,7.72
2018-09-18T08:24:20.379Z,9.40
2018-09-18T08:26:24.434Z,8.03
2018-09-18T08:28:28.486Z,10.00
2018-09-18T08:30:32.728Z,6.90
2018-09-18T08:32:36.870Z,6.58
2018-09-18T08:34:41.675Z,7.05
2018-09-18T08:36:45.950Z,8.58
2018-09-18T08:38:50.032Z,6.70
2018-09-18T08:40:54.119Z,7.75
2018-09-18T08:42:58.161Z,9.35
2018-09-18T08:45:02.334Z,8.25
2018-09-18T08:47:06.357Z,11.97
2018-09-18T08:49:11.381Z,7.72
2018-09-18T08:51:15.586Z,8.13
2018-09-18T08:53:19.650Z,9.10
2018-09-18T08:55:23.787Z,10.85
2018-09-18T08:57:28.226Z,10.78
2018-09-18T08:59:32.313Z,9.35
2018-09-18T09:01:36.583Z,8.78
2018-09-18T09:03:42.072Z,7.62
2018-09-18T09:05:46.751Z,15.83
2018-09-18T09:07:51.957Z,10.70
2018-09-18T09:09:55.877Z,8.70
2018-09-18T09:12:00.068Z,10.30
2018-09-18T09:14:04.240Z,10.32
2018-09-18T09:16:08.452Z,9.08
2018-09-18T09:18:12.803Z,9.48
2018-09-18T09:20:17.327Z,13.20
2018-09-18T09:22:21.621Z,9.55
2018-09-18T09:24:25.758Z,9.25
2018-09-18T09:26:29.949Z,11.85
2018-09-18T09:28:34.078Z,10.30
2018-09-18T09:30:38.548Z,8.65
2018-09-18T09:32:43.032Z,7.35
2018-09-18T09:34:47.245Z,8.50
2018-09-18T09:36:51.427Z,11.97
2018-09-18T09:38:55.548Z,7.75
2018-09-18T09:40:59.674Z,8.63
2018-09-18T09:43:03.983Z,9.95
2018-09-18T09:45:08.251Z,6.15
2018-09-18T09:47:12.751Z,13.25
2018-09-18T09:49:17.282Z,9.40
2018-09-18T09:51:22.311Z,10.53
2018-09-18T09:53:26.222Z,8.88
2018-09-18T09:55:30.457Z,14.03
2018-09-18T09:57:34.658Z,10.48
2018-09-18T09:59:38.985Z,7.72
2018-09-18T10:01:48.199Z,12.20
2018-09-18T10:03:52.722Z,11.83
2018-09-18T10:05:56.951Z,9.50
2018-09-18T10:08:01.102Z,11.45
2018-09-18T10:10:05.203Z,10.43
2018-09-18T10:12:10.036Z,7.58
2018-09-18T10:14:14.181Z,10.53
2018-09-18T10:16:18.304Z,10.68
2018-09-18T10:18:22.326Z,10.65
2018-09-18T10:20:26.379Z,9.78
2018-09-18T10:22:30.524Z,11.43
2018-09-18T10:24:34.693Z,10.55
2018-09-18T10:26:39.011Z,12.78
2018-09-18T10:28:43.205Z,10.53
2018-09-18T10:32:11.842Z,9.98
2018-09-18T10:34:16.460Z,11.50
2018-09-18T10:36:20.600Z,10.28
2018-09-18T10:38:24.730Z,12.07
2018-09-18T10:40:28.885Z,12.45
2018-09-18T10:42:32.987Z,11.48
2018-09-18T10:44:37.175Z,14.10
2018-09-18T10:46:42.472Z,12.73
2018-09-18T10:48:52.492Z,11.05
2018-09-18T10:50:56.794Z,13.62
2018-09-18T10:53:00.927Z,11.97
2018-09-18T10:55:04.996Z,9.98
2018-09-18T10:57:09.250Z,15.28
2018-09-18T10:59:13.528Z,10.08
2018-09-18T11:01:18.736Z,14.30
2018-09-18T11:03:22.905Z,11.93
2018-09-18T11:05:27.197Z,10.93
2018-09-18T11:07:31.457Z,11.85
2018-09-18T11:09:35.480Z,11.78
2018-09-18T11:11:40.928Z,14.45
2018-09-18T11:13:45.418Z,12.40
2018-09-18T11:15:49.582Z,13.58
2018-09-18T11:17:53.588Z,14.47
2018-09-18T11:19:57.729Z,13.60
2018-09-18T11:22:02.042Z,10.60
2018-09-18T11:24:06.360Z,10.00
2018-09-18T11:26:10.420Z,12.00
2018-09-18T11:28:14.787Z,11.18
2018-09-18T11:30:19.490Z,13.75
2018-09-18T11:32:23.664Z,11.57
2018-09-18T11:34:27.822Z,13.20
2018-09-18T11:36:32.069Z,13.80
2018-09-18T11:38:36.170Z,13.85
2018-09-18T11:40:40.358Z,10.08
2018-09-18T11:42:44.510Z,16.12
2018-09-18T11:44:48.620Z,13.62
2018-09-18T11:46:52.776Z,13.65
2018-09-18T11:48:56.823Z,11.48
2018-09-18T11:51:01.005Z,17.85
2018-09-18T11:53:05.035Z,12.07
2018-09-18T11:55:10.050Z,12.25
2018-09-18T11:57:14.271Z,12.37
2018-09-18T11:59:18.528Z,12.05
2018-09-18T12:01:22.555Z,13.88
2018-09-18T12:03:26.574Z,17.90
2018-09-18T12:05:30.589Z,12.28
2018-09-18T12:07:34.918Z,13.83
2018-09-18T12:09:39.106Z,21.62
2018-09-18T12:11:43.356Z,14.30
2018-09-18T12:13:47.854Z,11.33
2018-09-18T12:15:52.034Z,10.28
2018-09-18T12:17:56.107Z,13.93
2018-09-18T12:20:00.247Z,8.48
2018-09-18T12:22:04.380Z,18.87
2018-09-18T12:24:08.383Z,12.47
2018-09-18T12:26:12.582Z,10.65
2018-09-18T12:31:23.670Z,9.78
2018-09-18T12:33:27.668Z,12.43
2018-09-18T12:35:31.875Z,14.85
2018-09-18T12:37:35.774Z,12.20
2018-09-18T12:39:41.178Z,12.50
2018-09-18T12:41:45.522Z,15.13
2018-09-18T12:43:49.811Z,9.13
2018-09-18T12:45:53.950Z,14.03
2018-09-18T12:47:58.018Z,14.90
2018-09-18T12:50:03.199Z,13.00
2018-09-18T12:52:06.966Z,11.60
2018-09-18T12:54:12.081Z,12.73
2018-09-18T12:56:16.411Z,11.80
2018-09-18T12:58:20.526Z,12.00
2018-09-18T13:00:24.755Z,13.25
2018-09-18T13:02:28.779Z,13.80
2018-09-18T13:04:32.821Z,15.35
2018-09-18T13:06:37.015Z,9.40
2018-09-18T13:08:41.984Z,12.10
2018-09-18T13:10:46.159Z,14.25
2018-09-18T13:12:50.173Z,12.10
2018-09-18T13:14:54.261Z,15.48
2018-09-18T13:16:58.306Z,9.93
2018-09-18T13:19:02.425Z,13.45
2018-09-18T13:21:06.655Z,13.05
2018-09-18T13:23:12.215Z,13.38
2018-09-18T13:25:16.426Z,12.75
2018-09-18T13:27:20.423Z,19.62
2018-09-18T13:29:24.684Z,15.65
2018-09-18T13:31:28.761Z,14.23
2018-09-18T13:33:32.880Z,14.70
2018-09-18T13:35:36.993Z,10.78
2018-09-18T13:37:41.356Z,13.38
2018-09-18T13:39:45.502Z,12.80
2018-09-18T13:41:49.774Z,17.07
2018-09-18T13:43:53.810Z,13.28
2018-09-18T13:45:57.861Z,20.52
2018-09-18T13:48:02.158Z,15.48
2018-09-18T13:50:06.503Z,14.50
2018-09-18T13:52:10.542Z,14.60
2018-09-18T13:54:14.857Z,13.78
2018-09-18T13:56:19.226Z,17.85
2018-09-18T13:58:23.283Z,14.35
2018-09-18T14:00:27.350Z,14.87
2018-09-18T14:02:31.405Z,18.37
2018-09-18T14:04:35.507Z,17.15
2018-09-18T14:06:40.211Z,18.50
2018-09-18T14:08:44.342Z,20.70
2018-09-18T14:10:48.986Z,12.95
2018-09-18T14:12:53.030Z,19.20
2018-09-18T14:14:57.279Z,18.42
2018-09-18T14:17:01.283Z,17.12
2018-09-18T14:19:05.416Z,16.57
2018-09-18T14:21:11.066Z,16.37
2018-09-18T14:23:15.259Z,20.43
2018-09-18T14:25:19.422Z,21.15
2018-09-18T14:27:23.480Z,17.87
2018-09-18T14:29:27.878Z,17.65
2018-09-18T14:31:31.895Z,20.62
2018-09-18T14:33:36.084Z,23.50
2018-09-18T14:35:40.344Z,16.07
2018-09-18T14:37:44.504Z,15.35
2018-09-18T14:39:48.628Z,16.37
2018-09-18T14:41:53.258Z,14.53
2018-09-18T14:43:57.467Z,15.23
2018-09-18T14:46:01.691Z,17.12
2018-09-18T14:48:06.221Z,14.15
2018-09-18T14:50:11.064Z,19.37
2018-09-18T14:52:15.296Z,26.52
2018-09-18T14:54:20.003Z,17.98
2018-09-18T14:56:24.028Z,22.95
2018-09-18T14:58:28.070Z,20.48
2018-09-18T15:00:32.395Z,17.87
2018-09-18T15:02:36.432Z,21.75
2018-09-18T15:04:40.760Z,23.55
2018-09-18T15:06:45.401Z,18.48
2018-09-18T15:08:49.418Z,19.75
2018-09-18T15:10:53.631Z,22.52
2018-09-18T15:12:57.769Z,27.07
2018-09-18T15:15:01.788Z,22.98
2018-09-18T15:17:05.958Z,22.73
2018-09-18T15:19:10.204Z,21.35
2018-09-18T15:21:15.708Z,18.20
2018-09-18T15:23:19.721Z,24.40
2018-09-18T15:25:23.738Z,22.22
2018-09-18T15:27:27.901Z,22.20
2018-09-18T15:29:31.962Z,21.77
2018-09-18T15:32:39.894Z,23.87
2018-09-18T15:34:44.138Z,24.20
2018-09-18T15:36:48.235Z,24.32
2018-09-18T15:38:52.334Z,17.67
2018-09-18T15:40:56.718Z,21.15
2018-09-18T15:43:00.808Z,21.93
2018-09-18T15:45:04.858Z,28.20
2018-09-18T15:47:08.888Z,22.20
2018-09-18T15:49:13.063Z,24.00
2018-09-18T15:51:17.290Z,20.95
2018-09-18T15:55:34.365Z,21.20
2018-09-18T15:57:38.370Z,22.87
2018-09-18T15:59:42.818Z,26.33
2018-09-18T16:01:47.001Z,23.52
2018-09-18T16:03:52.663Z,22.90
2018-09-18T16:05:56.620Z,23.75
2018-09-18T16:08:00.580Z,27.13
2018-09-18T16:10:04.726Z,23.22
2018-09-18T16:12:08.658Z,26.00
2018-09-18T16:14:12.744Z,19.23
2018-09-18T16:16:17.395Z,20.27
2018-09-18T16:18:21.398Z,19.45
2018-09-18T16:20:25.433Z,17.45
2018-09-18T16:22:30.479Z,23.75
2018-09-18T16:24:34.432Z,19.75
2018-09-18T16:26:38.385Z,26.70
2018-09-18T16:28:43.104Z,24.60
2018-09-18T16:30:47.184Z,21.45
2018-09-18T16:32:51.046Z,62.00
2018-09-18T16:34:54.932Z,46.35
2018-09-18T16:36:58.812Z,53.95
2018-09-18T16:39:02.809Z,50.98
2018-09-18T16:41:07.066Z,46.10
2018-09-18T16:43:11.558Z,31.68
2018-09-18T16:45:15.788Z,32.53
2018-09-18T16:47:19.916Z,44.75
2018-09-18T16:49:23.801Z,27.55
2018-09-18T16:51:27.791Z,26.00
2018-09-18T16:53:31.757Z,27.05
2018-09-18T16:55:36.333Z,28.85
2018-09-18T16:57:41.809Z,27.65
2018-09-18T16:59:46.264Z,32.40
2018-09-18T17:01:50.268Z,27.17
2018-09-18T17:03:54.225Z,21.90
2018-09-18T17:05:58.124Z,27.60
2018-09-18T17:08:02.249Z,24.18
2018-09-18T17:10:06.217Z,26.80
2018-09-18T17:12:11.112Z,25.23
2018-09-18T17:14:15.318Z,24.52
2018-09-18T17:16:19.371Z,29.95
2018-09-18T19:10:26.501Z,12.17
2018-09-18T19:12:31.986Z,13.13
2018-09-18T19:14:36.058Z,11.90
2018-09-18T19:16:44.547Z,11.25
2018-09-18T19:18:48.919Z,14.18
2018-09-18T19:20:53.582Z,13.75
2018-09-18T19:22:57.613Z,11.65
2018-09-18T19:25:03.108Z,14.13
2018-09-18T19:27:07.906Z,12.68
2018-09-18T19:29:13.937Z,17.50
2018-09-18T19:32:00.319Z,17.25
2018-09-18T19:34:06.820Z,12.78
2018-09-18T19:36:13.002Z,12.00
2018-09-18T19:38:28.322Z,13.83
2018-09-18T19:43:24.802Z,11.60
2018-09-18T19:45:32.342Z,14.80
2018-09-18T19:47:48.810Z,17.62
2018-09-18T19:49:56.594Z,13.38
2018-09-18T19:52:07.610Z,20.20
2018-09-18T19:54:13.650Z,15.35
2018-09-18T19:58:30.697Z,14.65
2018-09-18T20:00:39.200Z,16.02
2018-09-18T20:02:47.747Z,10.48
2018-09-18T20:10:09.292Z,15.40
2018-09-18T20:12:21.988Z,11.65
2018-09-18T20:14:33.144Z,13.43
2018-09-18T20:16:40.970Z,15.08
2018-09-18T20:18:46.329Z,14.85
2018-09-18T20:20:53.552Z,17.55
2018-09-18T20:22:59.943Z,10.15
2018-09-18T20:25:11.781Z,13.58
2018-09-18T20:27:22.857Z,12.58
2018-09-18T20:29:26.863Z,13.40
2018-09-18T20:31:38.072Z,13.18
2018-09-18T20:33:43.345Z,12.50
2018-09-18T20:35:48.602Z,14.13
2018-09-18T20:37:54.450Z,17.35
2018-09-18T20:39:58.745Z,11.63
2018-09-18T20:42:06.271Z,9.55
2018-09-18T20:44:17.520Z,12.20
2018-09-18T20:46:26.658Z,12.25
2018-09-18T20:48:42.574Z,9.15
2018-09-18T20:50:58.049Z,8.15
2018-09-18T20:53:13.585Z,8.63
2018-09-18T20:55:21.097Z,9.90
2018-09-18T20:57:33.274Z,10.72
2018-09-18T20:59:43.073Z,13.65
2018-09-18T21:01:51.429Z,9.13
2018-09-18T21:03:55.538Z,10.63
2018-09-18T21:06:09.725Z,8.50
2018-09-18T21:08:14.770Z,13.88
2018-09-18T21:10:25.233Z,7.42
2018-09-18T21:12:31.597Z,11.30
2018-09-18T21:14:44.101Z,7.87
2018-09-18T21:16:50.563Z,8.35
2018-09-18T21:19:04.427Z,10.72
2018-09-18T21:21:22.178Z,10.05
2018-09-18T21:23:32.274Z,11.93
2018-09-18T21:26:56.314Z,11.33
2018-09-18T21:29:09.781Z,8.05
2018-09-18T21:31:24.280Z,8.25
2018-09-18T21:33:33.793Z,10.63
2018-09-18T21:35:38.650Z,11.35
2018-09-18T21:37:44.039Z,8.13
2018-09-18T21:39:48.666Z,7.95
2018-09-18T21:47:02.762Z,6.85
2018-09-18T21:49:08.571Z,8.58
2018-09-18T21:51:14.998Z,9.35
2018-09-18T21:53:46.671Z,7.58
2018-09-18T21:55:55.929Z,8.03
2018-09-18T21:58:01.791Z,11.30
2018-09-18T22:00:08.233Z,8.88
2018-09-18T22:02:15.680Z,7.22
2018-09-18T22:04:20.485Z,10.63
2018-09-18T22:06:27.857Z,9.40
2018-09-18T22:08:35.523Z,13.70
2018-09-18T22:10:46.493Z,9.75
2018-09-18T22:13:05.808Z,8.83
2018-09-18T22:15:10.407Z,8.95
2018-09-18T22:17:22.587Z,9.25
2018-09-18T22:19:35.386Z,10.45
2018-09-18T22:21:42.432Z,15.20
2018-09-18T22:23:47.782Z,9.83
2018-09-18T22:25:51.800Z,11.35
2018-09-18T22:27:55.693Z,9.60
2018-09-18T22:30:01.413Z,11.53
2018-09-18T22:33:09.708Z,12.00
2018-09-18T22:35:15.917Z,9.60
2018-09-18T22:37:24.127Z,13.03
2018-09-18T22:39:28.033Z,13.08
2018-09-18T22:41:35.867Z,10.85
2018-09-18T22:43:41.625Z,9.35
2018-09-18T22:45:53.354Z,8.70
2018-09-18T22:47:59.873Z,9.48
2018-09-18T22:50:06.111Z,10.63
2018-09-18T22:52:16.421Z,10.13
2018-09-18T22:54:22.214Z,10.28
2018-09-18T22:56:30.439Z,9.05
2018-09-18T22:58:39.437Z,9.08
2018-09-18T23:00:46.189Z,9.15
2018-09-18T23:03:00.937Z,9.40
2018-09-18T23:05:07.227Z,9.10
2018-09-18T23:07:20.416Z,9.95
2018-09-18T23:09:36.831Z,9.30
2018-09-18T23:11:45.337Z,11.18
2018-09-18T23:13:57.079Z,10.13
2018-09-18T23:16:01.074Z,16.07
2018-09-18T23:18:11.596Z,14.83
2018-09-18T23:20:22.383Z,15.18
2018-09-18T23:22:35.110Z,12.03
2018-09-18T23:24:44.852Z,11.30
2018-09-18T23:26:53.800Z,8.75
2018-09-18T23:29:00.653Z,10.55
2018-09-18T23:31:08.719Z,10.75
2018-09-18T23:33:19.877Z,11.50
2018-09-18T23:35:32.025Z,14.20
2018-09-18T23:37:38.568Z,11.40
2018-09-18T23:39:46.160Z,14.85
2018-09-18T23:41:53.639Z,16.27
2018-09-18T23:44:01.063Z,10.35
2018-09-18T23:46:05.237Z,12.23
2018-09-18T23:48:14.114Z,15.28
2018-09-18T23:50:25.307Z,10.98
2018-09-18T23:53:28.430Z,11.83
2018-09-18T23:55:34.364Z,11.45
2018-09-18T23:57:41.033Z,9.03
2018-09-18T23:59:48.994Z,9.45
